Terminal Aerodrome Forecast
Issued by NWS Wilmington, OH

Current Version | Previous Version | Text Only | Print | Product List | Glossary Off
Versions: 1 2 3 4 5 6 7 8 9 10 11 12 13 14 15 16 17 18 19 20 21

000
FTUS41 KILN 231100
TAFILN
TAF
KILN 231122Z 2312/2412 25008KT P6SM SKC
     FM231400 28012KT P6SM SKC
     FM231600 29017G26KT P6SM SCT060
     FM240000 32008KT P6SM FEW060
     FM240600 00000KT P6SM SKC=

USA.gov is the U.S. government's official web portal to all federal, state and local government web resources and services.